sensor_id;sensor_type;location;lat;lon;timestamp;P1;durP1;ratioP1;P2;durP2;ratioP2
23072;SDS011;34865;51.046;3.732;2022-09-09T00:01:15;9.90;;;3.50;;
23072;SDS011;34865;51.046;3.732;2022-09-09T00:04:00;11.43;;;3.27;;
23072;SDS011;34865;51.046;3.732;2022-09-09T00:09:18;5.80;;;2.57;;
23072;SDS011;34865;51.046;3.732;2022-09-09T00:11:48;12.73;;;2.90;;
23072;SDS011;34865;51.046;3.732;2022-09-09T00:17:10;6.67;;;2.40;;
23072;SDS011;34865;51.046;3.732;2022-09-09T00:19:46;7.10;;;2.53;;
23072;SDS011;34865;51.046;3.732;2022-09-09T00:22:23;9.77;;;2.70;;
23072;SDS011;34865;51.046;3.732;2022-09-09T00:24:53;7.47;;;2.17;;
23072;SDS011;34865;51.046;3.732;2022-09-09T00:27:31;8.13;;;2.80;;
23072;SDS011;34865;51.046;3.732;2022-09-09T00:30:18;9.70;;;2.87;;
23072;SDS011;34865;51.046;3.732;2022-09-09T00:32:48;5.90;;;2.27;;
23072;SDS011;34865;51.046;3.732;2022-09-09T00:35:49;9.77;;;2.50;;
23072;SDS011;34865;51.046;3.732;2022-09-09T00:38:34;5.00;;;2.67;;
23072;SDS011;34865;51.046;3.732;2022-09-09T00:43:39;6.63;;;2.70;;
23072;SDS011;34865;51.046;3.732;2022-09-09T00:48:50;6.03;;;2.17;;
23072;SDS011;34865;51.046;3.732;2022-09-09T00:51:41;8.80;;;2.13;;
23072;SDS011;34865;51.046;3.732;2022-09-09T00:57:04;8.77;;;2.20;;
23072;SDS011;34865;51.046;3.732;2022-09-09T00:59:46;9.60;;;2.73;;
23072;SDS011;34865;51.046;3.732;2022-09-09T01:04:53;14.27;;;3.00;;
23072;SDS011;34865;51.046;3.732;2022-09-09T01:07:19;9.73;;;2.70;;
23072;SDS011;34865;51.046;3.732;2022-09-09T01:09:50;8.40;;;2.40;;
23072;SDS011;34865;51.046;3.732;2022-09-09T01:12:26;5.43;;;2.20;;
23072;SDS011;34865;51.046;3.732;2022-09-09T01:15:11;8.50;;;2.17;;
23072;SDS011;34865;51.046;3.732;2022-09-09T01:20:24;4.97;;;2.30;;
23072;SDS011;34865;51.046;3.732;2022-09-09T01:28:10;7.83;;;2.17;;
23072;SDS011;34865;51.046;3.732;2022-09-09T01:30:39;3.47;;;2.17;;
23072;SDS011;34865;51.046;3.732;2022-09-09T01:33:07;6.83;;;1.97;;
23072;SDS011;34865;51.046;3.732;2022-09-09T01:38:07;9.50;;;2.57;;
23072;SDS011;34865;51.046;3.732;2022-09-09T01:40:33;11.93;;;2.40;;
23072;SDS011;34865;51.046;3.732;2022-09-09T01:42:59;8.10;;;2.53;;
23072;SDS011;34865;51.046;3.732;2022-09-09T01:45:24;4.80;;;2.30;;
23072;SDS011;34865;51.046;3.732;2022-09-09T01:47:51;10.20;;;2.87;;
23072;SDS011;34865;51.046;3.732;2022-09-09T01:50:17;8.80;;;2.33;;
23072;SDS011;34865;51.046;3.732;2022-09-09T01:52:44;13.87;;;2.70;;
23072;SDS011;34865;51.046;3.732;2022-09-09T01:55:12;7.57;;;3.23;;
23072;SDS011;34865;51.046;3.732;2022-09-09T01:57:44;7.83;;;2.13;;
23072;SDS011;34865;51.046;3.732;2022-09-09T02:00:19;7.77;;;2.27;;
23072;SDS011;34865;51.046;3.732;2022-09-09T02:05:37;13.60;;;2.70;;
23072;SDS011;34865;51.046;3.732;2022-09-09T02:10:58;10.17;;;2.23;;
23072;SDS011;34865;51.046;3.732;2022-09-09T02:13:35;4.93;;;2.10;;
23072;SDS011;34865;51.046;3.732;2022-09-09T02:16:10;8.90;;;2.50;;
23072;SDS011;34865;51.046;3.732;2022-09-09T02:18:46;9.57;;;2.27;;
23072;SDS011;34865;51.046;3.732;2022-09-09T02:21:18;7.33;;;1.93;;
23072;SDS011;34865;51.046;3.732;2022-09-09T02:23:44;11.57;;;2.63;;
23072;SDS011;34865;51.046;3.732;2022-09-09T02:26:17;11.07;;;2.50;;
23072;SDS011;34865;51.046;3.732;2022-09-09T02:28:47;8.00;;;2.30;;
23072;SDS011;34865;51.046;3.732;2022-09-09T02:31:15;10.63;;;3.20;;
23072;SDS011;34865;51.046;3.732;2022-09-09T02:33:47;11.07;;;2.27;;
23072;SDS011;34865;51.046;3.732;2022-09-09T02:36:17;7.03;;;2.53;;
23072;SDS011;34865;51.046;3.732;2022-09-09T02:38:45;18.70;;;3.07;;
23072;SDS011;34865;51.046;3.732;2022-09-09T02:41:18;11.40;;;2.73;;
23072;SDS011;34865;51.046;3.732;2022-09-09T02:43:46;5.97;;;2.17;;
23072;SDS011;34865;51.046;3.732;2022-09-09T02:49:04;10.03;;;2.23;;
23072;SDS011;34865;51.046;3.732;2022-09-09T02:54:33;13.90;;;2.87;;
23072;SDS011;34865;51.046;3.732;2022-09-09T02:57:06;12.83;;;2.70;;
23072;SDS011;34865;51.046;3.732;2022-09-09T02:59:34;10.73;;;2.90;;
23072;SDS011;34865;51.046;3.732;2022-09-09T03:02:00;10.60;;;2.43;;
23072;SDS011;34865;51.046;3.732;2022-09-09T03:04:26;13.83;;;3.03;;
23072;SDS011;34865;51.046;3.732;2022-09-09T03:06:51;5.57;;;2.30;;
23072;SDS011;34865;51.046;3.732;2022-09-09T03:09:17;13.37;;;2.63;;
23072;SDS011;34865;51.046;3.732;2022-09-09T03:11:43;9.17;;;2.57;;
23072;SDS011;34865;51.046;3.732;2022-09-09T03:14:08;12.17;;;2.63;;
23072;SDS011;34865;51.046;3.732;2022-09-09T03:16:36;16.43;;;3.10;;
23072;SDS011;34865;51.046;3.732;2022-09-09T03:19:01;10.53;;;3.30;;
23072;SDS011;34865;51.046;3.732;2022-09-09T03:21:27;14.23;;;2.90;;
23072;SDS011;34865;51.046;3.732;2022-09-09T03:23:53;11.70;;;3.20;;
23072;SDS011;34865;51.046;3.732;2022-09-09T03:26:18;10.70;;;2.73;;
23072;SDS011;34865;51.046;3.732;2022-09-09T03:28:45;11.70;;;2.90;;
23072;SDS011;34865;51.046;3.732;2022-09-09T03:31:10;11.47;;;2.33;;
23072;SDS011;34865;51.046;3.732;2022-09-09T03:33:37;12.80;;;3.10;;
23072;SDS011;34865;51.046;3.732;2022-09-09T03:36:03;15.07;;;2.57;;
23072;SDS011;34865;51.046;3.732;2022-09-09T03:38:29;17.83;;;3.30;;
23072;SDS011;34865;51.046;3.732;2022-09-09T03:40:56;12.37;;;2.97;;
23072;SDS011;34865;51.046;3.732;2022-09-09T03:43:23;13.63;;;3.53;;
23072;SDS011;34865;51.046;3.732;2022-09-09T03:45:50;16.97;;;3.10;;
23072;SDS011;34865;51.046;3.732;2022-09-09T03:48:16;15.90;;;2.80;;
23072;SDS011;34865;51.046;3.732;2022-09-09T03:50:46;12.20;;;2.73;;
23072;SDS011;34865;51.046;3.732;2022-09-09T03:53:13;15.87;;;2.90;;
23072;SDS011;34865;51.046;3.732;2022-09-09T03:55:44;13.73;;;2.80;;
23072;SDS011;34865;51.046;3.732;2022-09-09T03:58:11;16.13;;;3.03;;
23072;SDS011;34865;51.046;3.732;2022-09-09T04:00:40;17.73;;;3.57;;
23072;SDS011;34865;51.046;3.732;2022-09-09T04:03:10;12.23;;;2.70;;
23072;SDS011;34865;51.046;3.732;2022-09-09T04:05:38;14.75;;;2.70;;
23072;SDS011;34865;51.046;3.732;2022-09-09T04:08:04;17.93;;;3.23;;
23072;SDS011;34865;51.046;3.732;2022-09-09T04:10:31;20.03;;;3.10;;
23072;SDS011;34865;51.046;3.732;2022-09-09T04:12:56;18.42;;;3.00;;
23072;SDS011;34865;51.046;3.732;2022-09-09T04:15:22;16.73;;;3.13;;
23072;SDS011;34865;51.046;3.732;2022-09-09T04:17:47;14.73;;;3.60;;
23072;SDS011;34865;51.046;3.732;2022-09-09T04:20:13;20.03;;;2.87;;
23072;SDS011;34865;51.046;3.732;2022-09-09T04:22:38;17.17;;;3.27;;
23072;SDS011;34865;51.046;3.732;2022-09-09T04:25:05;11.87;;;3.23;;
23072;SDS011;34865;51.046;3.732;2022-09-09T04:27:31;19.23;;;3.20;;
23072;SDS011;34865;51.046;3.732;2022-09-09T04:30:06;17.97;;;2.97;;
23072;SDS011;34865;51.046;3.732;2022-09-09T04:33:16;18.63;;;3.30;;
23072;SDS011;34865;51.046;3.732;2022-09-09T04:35:46;14.73;;;3.30;;
23072;SDS011;34865;51.046;3.732;2022-09-09T04:38:13;16.13;;;3.63;;
23072;SDS011;34865;51.046;3.732;2022-09-09T04:40:42;13.97;;;4.13;;
23072;SDS011;34865;51.046;3.732;2022-09-09T04:43:08;12.73;;;2.97;;
23072;SDS011;34865;51.046;3.732;2022-09-09T04:45:34;14.63;;;2.40;;
23072;SDS011;34865;51.046;3.732;2022-09-09T04:48:03;12.13;;;2.60;;
23072;SDS011;34865;51.046;3.732;2022-09-09T04:50:28;14.10;;;3.30;;
23072;SDS011;34865;51.046;3.732;2022-09-09T04:52:54;20.40;;;3.93;;
23072;SDS011;34865;51.046;3.732;2022-09-09T04:55:20;15.57;;;2.90;;
23072;SDS011;34865;51.046;3.732;2022-09-09T04:57:45;14.07;;;3.07;;
23072;SDS011;34865;51.046;3.732;2022-09-09T05:00:11;18.30;;;3.77;;
23072;SDS011;34865;51.046;3.732;2022-09-09T05:02:38;13.67;;;2.80;;
23072;SDS011;34865;51.046;3.732;2022-09-09T05:05:05;11.47;;;3.43;;
23072;SDS011;34865;51.046;3.732;2022-09-09T05:07:31;12.63;;;3.33;;
23072;SDS011;34865;51.046;3.732;2022-09-09T05:09:57;14.17;;;3.17;;
23072;SDS011;34865;51.046;3.732;2022-09-09T05:12:23;11.03;;;2.83;;
23072;SDS011;34865;51.046;3.732;2022-09-09T05:14:50;10.53;;;3.23;;
23072;SDS011;34865;51.046;3.732;2022-09-09T05:17:16;17.73;;;3.60;;
23072;SDS011;34865;51.046;3.732;2022-09-09T05:19:42;14.30;;;3.63;;
23072;SDS011;34865;51.046;3.732;2022-09-09T05:22:09;12.83;;;3.60;;
23072;SDS011;34865;51.046;3.732;2022-09-09T05:24:37;15.40;;;3.70;;
23072;SDS011;34865;51.046;3.732;2022-09-09T05:27:03;15.07;;;3.83;;
23072;SDS011;34865;51.046;3.732;2022-09-09T05:29:30;16.67;;;3.20;;
23072;SDS011;34865;51.046;3.732;2022-09-09T05:31:58;14.47;;;3.83;;
23072;SDS011;34865;51.046;3.732;2022-09-09T05:34:24;15.13;;;3.57;;
23072;SDS011;34865;51.046;3.732;2022-09-09T05:36:49;23.00;;;3.63;;
23072;SDS011;34865;51.046;3.732;2022-09-09T05:39:16;17.70;;;3.87;;
23072;SDS011;34865;51.046;3.732;2022-09-09T05:41:41;25.00;;;4.30;;
23072;SDS011;34865;51.046;3.732;2022-09-09T05:44:07;13.30;;;3.03;;
23072;SDS011;34865;51.046;3.732;2022-09-09T05:46:32;13.67;;;3.67;;
23072;SDS011;34865;51.046;3.732;2022-09-09T05:48:58;17.13;;;3.83;;
23072;SDS011;34865;51.046;3.732;2022-09-09T05:51:25;20.60;;;3.57;;
23072;SDS011;34865;51.046;3.732;2022-09-09T05:53:53;13.23;;;3.63;;
23072;SDS011;34865;51.046;3.732;2022-09-09T05:56:21;14.80;;;2.90;;
23072;SDS011;34865;51.046;3.732;2022-09-09T05:58:50;15.33;;;3.10;;
23072;SDS011;34865;51.046;3.732;2022-09-09T06:01:19;14.07;;;2.90;;
23072;SDS011;34865;51.046;3.732;2022-09-09T06:03:47;16.67;;;3.57;;
23072;SDS011;34865;51.046;3.732;2022-09-09T06:06:14;18.10;;;3.70;;
23072;SDS011;34865;51.046;3.732;2022-09-09T06:08:45;21.07;;;3.60;;
23072;SDS011;34865;51.046;3.732;2022-09-09T06:11:20;20.83;;;4.33;;
23072;SDS011;34865;51.046;3.732;2022-09-09T06:13:49;21.73;;;3.78;;
23072;SDS011;34865;51.046;3.732;2022-09-09T06:16:20;13.37;;;3.07;;
23072;SDS011;34865;51.046;3.732;2022-09-09T06:18:51;13.37;;;3.37;;
23072;SDS011;34865;51.046;3.732;2022-09-09T06:21:23;15.27;;;3.80;;
23072;SDS011;34865;51.046;3.732;2022-09-09T06:23:54;16.30;;;3.37;;
23072;SDS011;34865;51.046;3.732;2022-09-09T06:26:29;11.20;;;3.10;;
23072;SDS011;34865;51.046;3.732;2022-09-09T06:28:57;22.97;;;4.00;;
23072;SDS011;34865;51.046;3.732;2022-09-09T06:31:24;26.50;;;3.87;;
23072;SDS011;34865;51.046;3.732;2022-09-09T06:33:52;23.13;;;4.53;;
23072;SDS011;34865;51.046;3.732;2022-09-09T06:36:23;16.73;;;3.43;;
23072;SDS011;34865;51.046;3.732;2022-09-09T06:38:50;20.47;;;4.40;;
23072;SDS011;34865;51.046;3.732;2022-09-09T06:41:17;14.93;;;4.40;;
23072;SDS011;34865;51.046;3.732;2022-09-09T06:43:44;17.60;;;4.27;;
23072;SDS011;34865;51.046;3.732;2022-09-09T06:46:19;13.63;;;4.10;;
23072;SDS011;34865;51.046;3.732;2022-09-09T06:48:48;20.43;;;4.33;;
23072;SDS011;34865;51.046;3.732;2022-09-09T06:51:20;23.93;;;6.50;;
23072;SDS011;34865;51.046;3.732;2022-09-09T06:53:49;17.73;;;4.83;;
23072;SDS011;34865;51.046;3.732;2022-09-09T06:58:41;15.00;;;3.10;;
23072;SDS011;34865;51.046;3.732;2022-09-09T07:01:09;16.73;;;3.53;;
23072;SDS011;34865;51.046;3.732;2022-09-09T07:03:37;15.73;;;3.80;;
23072;SDS011;34865;51.046;3.732;2022-09-09T07:06:03;19.63;;;5.23;;
23072;SDS011;34865;51.046;3.732;2022-09-09T07:08:30;16.60;;;3.47;;
23072;SDS011;34865;51.046;3.732;2022-09-09T07:11:06;18.03;;;3.47;;
23072;SDS011;34865;51.046;3.732;2022-09-09T07:13:33;22.07;;;3.90;;
23072;SDS011;34865;51.046;3.732;2022-09-09T07:16:09;14.73;;;3.25;;
23072;SDS011;34865;51.046;3.732;2022-09-09T07:18:40;16.90;;;4.82;;
23072;SDS011;34865;51.046;3.732;2022-09-09T07:21:09;17.13;;;3.53;;
23072;SDS011;34865;51.046;3.732;2022-09-09T07:23:37;22.57;;;3.40;;
23072;SDS011;34865;51.046;3.732;2022-09-09T07:26:07;19.65;;;3.72;;
23072;SDS011;34865;51.046;3.732;2022-09-09T07:28:42;17.10;;;3.40;;
23072;SDS011;34865;51.046;3.732;2022-09-09T07:31:12;19.40;;;3.70;;
23072;SDS011;34865;51.046;3.732;2022-09-09T07:33:43;16.33;;;3.03;;
23072;SDS011;34865;51.046;3.732;2022-09-09T07:36:12;12.82;;;3.88;;
23072;SDS011;34865;51.046;3.732;2022-09-09T07:38:50;8.85;;;2.50;;
23072;SDS011;34865;51.046;3.732;2022-09-09T07:41:22;11.55;;;3.30;;
23072;SDS011;34865;51.046;3.732;2022-09-09T07:43:50;11.45;;;2.28;;
23072;SDS011;34865;51.046;3.732;2022-09-09T07:46:18;14.82;;;2.67;;
23072;SDS011;34865;51.046;3.732;2022-09-09T07:48:45;8.75;;;2.80;;
23072;SDS011;34865;51.046;3.732;2022-09-09T07:51:16;13.45;;;2.80;;
23072;SDS011;34865;51.046;3.732;2022-09-09T07:53:47;9.50;;;3.10;;
23072;SDS011;34865;51.046;3.732;2022-09-09T07:56:15;18.15;;;3.25;;
23072;SDS011;34865;51.046;3.732;2022-09-09T07:58:45;14.35;;;2.50;;
23072;SDS011;34865;51.046;3.732;2022-09-09T08:01:13;15.20;;;3.67;;
23072;SDS011;34865;51.046;3.732;2022-09-09T08:03:42;9.65;;;2.55;;
23072;SDS011;34865;51.046;3.732;2022-09-09T08:06:09;15.80;;;3.63;;
23072;SDS011;34865;51.046;3.732;2022-09-09T08:08:37;17.67;;;2.70;;
23072;SDS011;34865;51.046;3.732;2022-09-09T08:13:32;17.35;;;4.22;;
23072;SDS011;34865;51.046;3.732;2022-09-09T08:16:10;13.00;;;3.72;;
23072;SDS011;34865;51.046;3.732;2022-09-09T08:18:36;9.50;;;2.90;;
23072;SDS011;34865;51.046;3.732;2022-09-09T08:21:12;10.95;;;3.40;;
23072;SDS011;34865;51.046;3.732;2022-09-09T08:23:40;17.52;;;3.90;;
23072;SDS011;34865;51.046;3.732;2022-09-09T08:26:09;13.70;;;3.20;;
23072;SDS011;34865;51.046;3.732;2022-09-09T08:28:37;12.05;;;2.97;;
23072;SDS011;34865;51.046;3.732;2022-09-09T08:31:14;14.13;;;3.15;;
23072;SDS011;34865;51.046;3.732;2022-09-09T08:33:42;8.40;;;2.63;;
23072;SDS011;34865;51.046;3.732;2022-09-09T08:36:12;8.32;;;2.67;;
23072;SDS011;34865;51.046;3.732;2022-09-09T08:38:40;13.63;;;3.58;;
23072;SDS011;34865;51.046;3.732;2022-09-09T08:44:04;10.18;;;2.95;;
23072;SDS011;34865;51.046;3.732;2022-09-09T08:46:34;12.48;;;2.25;;
23072;SDS011;34865;51.046;3.732;2022-09-09T08:51:38;13.25;;;3.28;;
23072;SDS011;34865;51.046;3.732;2022-09-09T08:54:04;6.38;;;2.53;;
23072;SDS011;34865;51.046;3.732;2022-09-09T08:56:31;6.75;;;2.17;;
23072;SDS011;34865;51.046;3.732;2022-09-09T08:58:58;11.48;;;2.92;;
23072;SDS011;34865;51.046;3.732;2022-09-09T09:01:39;11.48;;;2.78;;
23072;SDS011;34865;51.046;3.732;2022-09-09T09:04:29;7.18;;;2.60;;
23072;SDS011;34865;51.046;3.732;2022-09-09T09:07:24;8.15;;;2.50;;
23072;SDS011;34865;51.046;3.732;2022-09-09T09:10:12;9.35;;;2.60;;
23072;SDS011;34865;51.046;3.732;2022-09-09T09:12:57;10.73;;;2.67;;
23072;SDS011;34865;51.046;3.732;2022-09-09T09:15:26;8.13;;;2.33;;
23072;SDS011;34865;51.046;3.732;2022-09-09T09:17:55;11.43;;;2.58;;
23072;SDS011;34865;51.046;3.732;2022-09-09T09:20:34;6.97;;;2.92;;
23072;SDS011;34865;51.046;3.732;2022-09-09T09:23:11;7.43;;;1.85;;
23072;SDS011;34865;51.046;3.732;2022-09-09T09:25:46;11.02;;;2.70;;
23072;SDS011;34865;51.046;3.732;2022-09-09T09:28:13;9.75;;;1.98;;
23072;SDS011;34865;51.046;3.732;2022-09-09T09:36:15;9.25;;;1.98;;
23072;SDS011;34865;51.046;3.732;2022-09-09T09:38:54;3.97;;;1.90;;
23072;SDS011;34865;51.046;3.732;2022-09-09T09:41:35;8.32;;;2.25;;
23072;SDS011;34865;51.046;3.732;2022-09-09T09:44:04;10.50;;;2.58;;
23072;SDS011;34865;51.046;3.732;2022-09-09T09:46:32;7.45;;;3.42;;
23072;SDS011;34865;51.046;3.732;2022-09-09T09:48:59;6.30;;;2.25;;
23072;SDS011;34865;51.046;3.732;2022-09-09T09:51:30;9.38;;;2.55;;
23072;SDS011;34865;51.046;3.732;2022-09-09T09:54:09;13.23;;;3.97;;
23072;SDS011;34865;51.046;3.732;2022-09-09T09:56:40;10.18;;;2.30;;
23072;SDS011;34865;51.046;3.732;2022-09-09T10:02:10;7.13;;;2.65;;
23072;SDS011;34865;51.046;3.732;2022-09-09T10:04:43;12.55;;;2.60;;
23072;SDS011;34865;51.046;3.732;2022-09-09T10:07:15;8.38;;;2.40;;
23072;SDS011;34865;51.046;3.732;2022-09-09T10:09:44;13.18;;;2.65;;
23072;SDS011;34865;51.046;3.732;2022-09-09T10:17:52;11.95;;;2.30;;
23072;SDS011;34865;51.046;3.732;2022-09-09T10:20:43;6.95;;;2.10;;
23072;SDS011;34865;51.046;3.732;2022-09-09T10:35:12;8.63;;;2.25;;
23072;SDS011;34865;51.046;3.732;2022-09-09T10:46:41;7.25;;;1.92;;
23072;SDS011;34865;51.046;3.732;2022-09-09T10:49:27;4.28;;;1.50;;
23072;SDS011;34865;51.046;3.732;2022-09-09T10:55:12;9.05;;;1.92;;
23072;SDS011;34865;51.046;3.732;2022-09-09T10:57:44;9.10;;;2.00;;
23072;SDS011;34865;51.046;3.732;2022-09-09T11:00:19;5.15;;;1.60;;
23072;SDS011;34865;51.046;3.732;2022-09-09T11:02:47;11.73;;;2.28;;
23072;SDS011;34865;51.046;3.732;2022-09-09T11:05:24;6.93;;;1.75;;
23072;SDS011;34865;51.046;3.732;2022-09-09T11:10:51;5.32;;;1.60;;
23072;SDS011;34865;51.046;3.732;2022-09-09T11:19:01;9.88;;;2.20;;
23072;SDS011;34865;51.046;3.732;2022-09-09T11:21:52;23.77;;;13.60;;
23072;SDS011;34865;51.046;3.732;2022-09-09T11:27:10;4.50;;;1.33;;
23072;SDS011;34865;51.046;3.732;2022-09-09T11:38:02;6.03;;;1.80;;
23072;SDS011;34865;51.046;3.732;2022-09-09T11:41:03;4.70;;;1.50;;
23072;SDS011;34865;51.046;3.732;2022-09-09T11:46:08;4.97;;;1.42;;
23072;SDS011;34865;51.046;3.732;2022-09-09T11:48:36;2.88;;;1.33;;
23072;SDS011;34865;51.046;3.732;2022-09-09T11:53:55;5.03;;;2.17;;
23072;SDS011;34865;51.046;3.732;2022-09-09T11:56:34;7.82;;;2.30;;
23072;SDS011;34865;51.046;3.732;2022-09-09T11:59:23;3.78;;;1.63;;
23072;SDS011;34865;51.046;3.732;2022-09-09T12:01:55;3.45;;;1.30;;
23072;SDS011;34865;51.046;3.732;2022-09-09T12:12:49;9.48;;;4.75;;
23072;SDS011;34865;51.046;3.732;2022-09-09T12:17:50;5.85;;;1.70;;
23072;SDS011;34865;51.046;3.732;2022-09-09T12:20:20;5.05;;;1.83;;
23072;SDS011;34865;51.046;3.732;2022-09-09T12:32:15;5.05;;;1.50;;
23072;SDS011;34865;51.046;3.732;2022-09-09T12:34:57;3.95;;;1.40;;
23072;SDS011;34865;51.046;3.732;2022-09-09T12:37:41;6.15;;;1.55;;
23072;SDS011;34865;51.046;3.732;2022-09-09T12:40:20;6.13;;;1.83;;
23072;SDS011;34865;51.046;3.732;2022-09-09T12:42:50;3.97;;;1.55;;
23072;SDS011;34865;51.046;3.732;2022-09-09T12:45:26;7.32;;;1.45;;
23072;SDS011;34865;51.046;3.732;2022-09-09T12:48:00;5.65;;;1.73;;
23072;SDS011;34865;51.046;3.732;2022-09-09T12:53:25;4.30;;;1.50;;
23072;SDS011;34865;51.046;3.732;2022-09-09T12:55:57;8.27;;;1.65;;
23072;SDS011;34865;51.046;3.732;2022-09-09T12:58:32;6.20;;;1.75;;
23072;SDS011;34865;51.046;3.732;2022-09-09T13:01:18;7.78;;;1.60;;
23072;SDS011;34865;51.046;3.732;2022-09-09T13:03:58;3.88;;;1.88;;
23072;SDS011;34865;51.046;3.732;2022-09-09T13:06:55;5.78;;;1.70;;
23072;SDS011;34865;51.046;3.732;2022-09-09T13:09:36;5.18;;;2.10;;
23072;SDS011;34865;51.046;3.732;2022-09-09T13:12:06;7.22;;;1.90;;
23072;SDS011;34865;51.046;3.732;2022-09-09T13:14:44;8.48;;;1.92;;
23072;SDS011;34865;51.046;3.732;2022-09-09T13:17:30;7.25;;;2.20;;
23072;SDS011;34865;51.046;3.732;2022-09-09T13:19:56;7.43;;;2.17;;
23072;SDS011;34865;51.046;3.732;2022-09-09T13:22:26;6.40;;;2.05;;
23072;SDS011;34865;51.046;3.732;2022-09-09T13:25:00;8.40;;;1.63;;
23072;SDS011;34865;51.046;3.732;2022-09-09T13:27:41;6.60;;;2.05;;
23072;SDS011;34865;51.046;3.732;2022-09-09T13:30:20;2.42;;;1.73;;
23072;SDS011;34865;51.046;3.732;2022-09-09T13:32:48;7.43;;;1.77;;
23072;SDS011;34865;51.046;3.732;2022-09-09T13:35:29;6.68;;;1.40;;
23072;SDS011;34865;51.046;3.732;2022-09-09T13:37:55;4.20;;;2.22;;
23072;SDS011;34865;51.046;3.732;2022-09-09T13:40:22;3.65;;;1.48;;
23072;SDS011;34865;51.046;3.732;2022-09-09T13:42:52;6.95;;;3.15;;
23072;SDS011;34865;51.046;3.732;2022-09-09T13:45:22;5.47;;;2.05;;
23072;SDS011;34865;51.046;3.732;2022-09-09T13:47:51;4.18;;;1.52;;
23072;SDS011;34865;51.046;3.732;2022-09-09T13:52:51;4.47;;;1.63;;
23072;SDS011;34865;51.046;3.732;2022-09-09T13:55:22;5.80;;;1.25;;
23072;SDS011;34865;51.046;3.732;2022-09-09T13:57:52;10.05;;;2.17;;
23072;SDS011;34865;51.046;3.732;2022-09-09T14:00:22;4.38;;;1.55;;
23072;SDS011;34865;51.046;3.732;2022-09-09T14:02:51;5.03;;;1.60;;
23072;SDS011;34865;51.046;3.732;2022-09-09T14:05:19;6.70;;;2.15;;
23072;SDS011;34865;51.046;3.732;2022-09-09T14:07:47;4.35;;;1.45;;
23072;SDS011;34865;51.046;3.732;2022-09-09T14:10:14;3.60;;;1.88;;
23072;SDS011;34865;51.046;3.732;2022-09-09T14:12:40;5.40;;;1.58;;
23072;SDS011;34865;51.046;3.732;2022-09-09T14:15:06;5.63;;;1.65;;
23072;SDS011;34865;51.046;3.732;2022-09-09T14:17:34;5.72;;;2.03;;
23072;SDS011;34865;51.046;3.732;2022-09-09T14:20:02;9.32;;;2.17;;
23072;SDS011;34865;51.046;3.732;2022-09-09T14:22:30;6.53;;;2.65;;
23072;SDS011;34865;51.046;3.732;2022-09-09T14:24:59;6.95;;;2.10;;
23072;SDS011;34865;51.046;3.732;2022-09-09T14:27:25;8.35;;;1.98;;
23072;SDS011;34865;51.046;3.732;2022-09-09T14:29:51;3.88;;;1.88;;
23072;SDS011;34865;51.046;3.732;2022-09-09T14:32:17;6.47;;;1.80;;
23072;SDS011;34865;51.046;3.732;2022-09-09T14:34:43;6.68;;;1.58;;
23072;SDS011;34865;51.046;3.732;2022-09-09T14:37:09;4.22;;;1.67;;
23072;SDS011;34865;51.046;3.732;2022-09-09T14:39:35;7.53;;;1.83;;
23072;SDS011;34865;51.046;3.732;2022-09-09T14:42:00;6.20;;;1.52;;
23072;SDS011;34865;51.046;3.732;2022-09-09T14:44:27;4.32;;;1.60;;
23072;SDS011;34865;51.046;3.732;2022-09-09T14:46:54;5.78;;;1.35;;
23072;SDS011;34865;51.046;3.732;2022-09-09T14:49:22;4.55;;;1.60;;
23072;SDS011;34865;51.046;3.732;2022-09-09T14:51:47;5.18;;;1.50;;
23072;SDS011;34865;51.046;3.732;2022-09-09T14:54:16;5.03;;;2.30;;
23072;SDS011;34865;51.046;3.732;2022-09-09T14:56:42;4.43;;;1.42;;
23072;SDS011;34865;51.046;3.732;2022-09-09T14:59:08;6.80;;;1.98;;
23072;SDS011;34865;51.046;3.732;2022-09-09T15:01:34;5.78;;;1.75;;
23072;SDS011;34865;51.046;3.732;2022-09-09T15:04:00;3.70;;;1.67;;
23072;SDS011;34865;51.046;3.732;2022-09-09T15:06:29;4.50;;;1.60;;
23072;SDS011;34865;51.046;3.732;2022-09-09T15:08:58;3.70;;;1.20;;
23072;SDS011;34865;51.046;3.732;2022-09-09T15:11:28;5.00;;;1.40;;
23072;SDS011;34865;51.046;3.732;2022-09-09T15:13:57;3.40;;;1.45;;
23072;SDS011;34865;51.046;3.732;2022-09-09T15:16:25;3.88;;;1.17;;
23072;SDS011;34865;51.046;3.732;2022-09-09T15:18:53;4.47;;;1.52;;
23072;SDS011;34865;51.046;3.732;2022-09-09T15:21:21;4.20;;;1.88;;
23072;SDS011;34865;51.046;3.732;2022-09-09T15:23:56;5.57;;;1.85;;
23072;SDS011;34865;51.046;3.732;2022-09-09T15:26:23;6.53;;;1.90;;
23072;SDS011;34865;51.046;3.732;2022-09-09T15:28:49;2.80;;;2.05;;
23072;SDS011;34865;51.046;3.732;2022-09-09T15:31:19;5.35;;;2.17;;
23072;SDS011;34865;51.046;3.732;2022-09-09T15:33:47;4.35;;;1.70;;
23072;SDS011;34865;51.046;3.732;2022-09-09T15:36:14;6.20;;;1.85;;
23072;SDS011;34865;51.046;3.732;2022-09-09T15:38:42;3.35;;;1.40;;
23072;SDS011;34865;51.046;3.732;2022-09-09T15:41:09;4.75;;;1.60;;
23072;SDS011;34865;51.046;3.732;2022-09-09T15:43:35;1.48;;;0.95;;
23072;SDS011;34865;51.046;3.732;2022-09-09T15:46:05;2.20;;;1.30;;
23072;SDS011;34865;51.046;3.732;2022-09-09T15:48:52;6.82;;;2.13;;
23072;SDS011;34865;51.046;3.732;2022-09-09T15:51:20;7.22;;;2.13;;
23072;SDS011;34865;51.046;3.732;2022-09-09T15:53:46;8.40;;;1.52;;
23072;SDS011;34865;51.046;3.732;2022-09-09T15:56:12;4.22;;;1.50;;
23072;SDS011;34865;51.046;3.732;2022-09-09T15:58:38;5.30;;;1.63;;
23072;SDS011;34865;51.046;3.732;2022-09-09T16:03:36;5.18;;;1.80;;
23072;SDS011;34865;51.046;3.732;2022-09-09T16:06:03;9.40;;;2.25;;
23072;SDS011;34865;51.046;3.732;2022-09-09T16:08:32;6.75;;;1.92;;
23072;SDS011;34865;51.046;3.732;2022-09-09T16:11:11;4.72;;;2.50;;
23072;SDS011;34865;51.046;3.732;2022-09-09T16:13:51;7.47;;;2.28;;
23072;SDS011;34865;51.046;3.732;2022-09-09T16:16:19;6.93;;;2.08;;
23072;SDS011;34865;51.046;3.732;2022-09-09T16:18:51;6.32;;;2.35;;
23072;SDS011;34865;51.046;3.732;2022-09-09T16:21:21;4.05;;;1.63;;
23072;SDS011;34865;51.046;3.732;2022-09-09T16:23:51;8.35;;;2.30;;
23072;SDS011;34865;51.046;3.732;2022-09-09T16:26:24;4.25;;;1.77;;
23072;SDS011;34865;51.046;3.732;2022-09-09T16:28:57;4.13;;;1.67;;
23072;SDS011;34865;51.046;3.732;2022-09-09T16:31:24;8.43;;;2.00;;
23072;SDS011;34865;51.046;3.732;2022-09-09T16:33:52;7.82;;;1.90;;
23072;SDS011;34865;51.046;3.732;2022-09-09T16:36:19;7.55;;;1.98;;
23072;SDS011;34865;51.046;3.732;2022-09-09T16:38:52;9.20;;;2.58;;
23072;SDS011;34865;51.046;3.732;2022-09-09T16:41:25;3.13;;;1.65;;
23072;SDS011;34865;51.046;3.732;2022-09-09T16:43:58;6.90;;;2.05;;
23072;SDS011;34865;51.046;3.732;2022-09-09T16:46:27;3.22;;;1.98;;
23072;SDS011;34865;51.046;3.732;2022-09-09T16:48:55;8.25;;;2.55;;
23072;SDS011;34865;51.046;3.732;2022-09-09T16:51:25;6.90;;;2.33;;
23072;SDS011;34865;51.046;3.732;2022-09-09T16:53:57;5.80;;;2.00;;
23072;SDS011;34865;51.046;3.732;2022-09-09T16:56:25;5.72;;;2.40;;
23072;SDS011;34865;51.046;3.732;2022-09-09T16:59:07;4.95;;;2.28;;
23072;SDS011;34865;51.046;3.732;2022-09-09T17:01:40;7.53;;;2.47;;
23072;SDS011;34865;51.046;3.732;2022-09-09T17:04:14;5.45;;;2.25;;
23072;SDS011;34865;51.046;3.732;2022-09-09T17:06:49;4.93;;;2.05;;
23072;SDS011;34865;51.046;3.732;2022-09-09T17:09:16;8.07;;;2.83;;
23072;SDS011;34865;51.046;3.732;2022-09-09T17:11:43;12.10;;;4.22;;
23072;SDS011;34865;51.046;3.732;2022-09-09T17:14:11;15.32;;;5.15;;
23072;SDS011;34865;51.046;3.732;2022-09-09T17:16:43;18.45;;;5.43;;
23072;SDS011;34865;51.046;3.732;2022-09-09T17:19:10;14.32;;;4.53;;
23072;SDS011;34865;51.046;3.732;2022-09-09T17:21:36;13.48;;;4.05;;